Terminal Aerodrome Forecast
Issued by NWS

Home | Current Version | Previous Version | Text Only | Print | Product List | Glossary Off
Versions: 1 2 3 4 5 6 7 8 9 10 11 12 13 14 15 16 17 18 19 20 21 22 23 24 25 26 27 28 29 30

426
FTUS45 KGGW 051141
TAFOLF
TAF
KOLF 051141Z 0512/0612 32020KT P6SM VCSH SCT025 OVC040
     FM051900 31018G26KT P6SM OVC020
     FM052300 31016KT P6SM OVC020
     FM060600 29013KT P6SM BKN040=

USA.gov is the U.S. government's official web portal to all federal, state and local government web resources and services.